sensor_id;sensor_type;location;lat;lon;timestamp;pressure;altitude;pressure_sealevel;temperature;humidity
52185;BME280;38160;52.876;18.778;2022-08-21T00:00:49;100430.27;;;21.54;85.79
52185;BME280;38160;52.876;18.778;2022-08-21T00:03:21;100420.94;;;21.55;86.43
52185;BME280;38160;52.876;18.778;2022-08-21T00:05:52;100420.94;;;21.55;86.43
52185;BME280;38160;52.876;18.778;2022-08-21T00:08:24;100415.76;;;21.56;86.77
52185;BME280;38160;52.876;18.778;2022-08-21T00:10:56;100424.69;;;21.63;86.18
52185;BME280;38160;52.876;18.778;2022-08-21T00:13:28;100433.84;;;21.55;86.38
52185;BME280;38160;52.876;18.778;2022-08-21T00:16:00;100435.03;;;21.47;86.88
52185;BME280;38160;52.876;18.778;2022-08-21T00:18:32;100433.42;;;21.49;86.84
52185;BME280;38160;52.876;18.778;2022-08-21T00:21:05;100415.45;;;21.32;87.72
52185;BME280;38160;52.876;18.778;2022-08-21T00:23:36;100422.45;;;21.37;87.61
52185;BME280;38160;52.876;18.778;2022-08-21T00:26:09;100411.65;;;21.33;87.73
52185;BME280;38160;52.876;18.778;2022-08-21T00:28:41;100409.94;;;21.41;88.34
52185;BME280;38160;52.876;18.778;2022-08-21T00:31:12;100405.33;;;21.44;88.16
52185;BME280;38160;52.876;18.778;2022-08-21T00:33:45;100410.92;;;21.37;88.14
52185;BME280;38160;52.876;18.778;2022-08-21T00:36:17;100409.73;;;21.33;88.34
52185;BME280;38160;52.876;18.778;2022-08-21T00:38:49;100409.96;;;21.32;88.52
52185;BME280;38160;52.876;18.778;2022-08-21T00:41:21;100402.22;;;21.29;88.68
52185;BME280;38160;52.876;18.778;2022-08-21T00:43:54;100400.80;;;21.26;89.31
52185;BME280;38160;52.876;18.778;2022-08-21T00:46:26;100389.14;;;21.33;89.10
52185;BME280;38160;52.876;18.778;2022-08-21T00:48:57;100392.93;;;21.30;89.23
52185;BME280;38160;52.876;18.778;2022-08-21T00:51:42;100385.21;;;21.29;89.36
52185;BME280;38160;52.876;18.778;2022-08-21T00:54:10;100389.87;;;21.29;89.62
52185;BME280;38160;52.876;18.778;2022-08-21T00:56:43;100387.54;;;21.35;89.58
52185;BME280;38160;52.876;18.778;2022-08-21T00:59:17;100379.77;;;21.32;89.67
52185;BME280;38160;52.876;18.778;2022-08-21T01:01:50;100383.84;;;21.29;89.83
52185;BME280;38160;52.876;18.778;2022-08-21T01:04:23;100374.78;;;21.29;89.89
52185;BME280;38160;52.876;18.778;2022-08-21T05:03:46;100400.64;;;20.71;98.12
52185;BME280;38160;52.876;18.778;2022-08-21T05:12:43;100408.86;;;20.71;100.00
52185;BME280;38160;52.876;18.778;2022-08-21T05:15:16;100413.52;;;20.83;100.00
52185;BME280;38160;52.876;18.778;2022-08-21T05:17:49;100405.89;;;20.85;100.00
52185;BME280;38160;52.876;18.778;2022-08-21T05:20:26;100408.74;;;20.90;100.00
52185;BME280;38160;52.876;18.778;2022-08-21T05:23:01;100422.11;;;20.98;100.00
52185;BME280;38160;52.876;18.778;2022-08-21T05:25:39;100432.61;;;21.13;100.00
52185;BME280;38160;52.876;18.778;2022-08-21T05:31:56;100410.53;;;21.19;100.00
52185;BME280;38160;52.876;18.778;2022-08-21T05:34:28;100435.39;;;21.51;99.62
52185;BME280;38160;52.876;18.778;2022-08-21T05:37:00;100437.54;;;21.60;99.96
52185;BME280;38160;52.876;18.778;2022-08-21T05:39:31;100432.22;;;21.82;99.92
52185;BME280;38160;52.876;18.778;2022-08-21T05:42:05;100423.55;;;22.02;99.02
52185;BME280;38160;52.876;18.778;2022-08-21T05:48:36;100423.71;;;22.24;98.21
52185;BME280;38160;52.876;18.778;2022-08-21T05:51:15;100416.05;;;22.43;98.47
52185;BME280;38160;52.876;18.778;2022-08-21T05:53:44;100413.25;;;22.55;98.28
52185;BME280;38160;52.876;18.778;2022-08-21T05:56:21;100409.11;;;22.72;97.79
52185;BME280;38160;52.876;18.778;2022-08-21T05:58:53;100400.44;;;22.80;97.66
52185;BME280;38160;52.876;18.778;2022-08-21T06:01:25;100410.03;;;22.95;97.38
52185;BME280;38160;52.876;18.778;2022-08-21T06:07:55;100410.93;;;23.17;96.71
52185;BME280;38160;52.876;18.778;2022-08-21T06:10:27;100407.32;;;23.14;96.54
52185;BME280;38160;52.876;18.778;2022-08-21T06:12:58;100406.80;;;23.17;96.88
52185;BME280;38160;52.876;18.778;2022-08-21T06:15:30;100398.30;;;23.19;96.20
52185;BME280;38160;52.876;18.778;2022-08-21T06:18:02;100396.19;;;23.26;96.42
52185;BME280;38160;52.876;18.778;2022-08-21T06:20:38;100402.06;;;23.32;96.35
52185;BME280;38160;52.876;18.778;2022-08-21T06:23:11;100397.80;;;23.44;96.47
52185;BME280;38160;52.876;18.778;2022-08-21T06:25:43;100395.09;;;23.49;95.10
52185;BME280;38160;52.876;18.778;2022-08-21T06:32:14;100376.80;;;23.62;95.62
52185;BME280;38160;52.876;18.778;2022-08-21T06:34:47;100371.84;;;23.62;95.10
52185;BME280;38160;52.876;18.778;2022-08-21T06:37:35;100368.80;;;23.58;95.60
52185;BME280;38160;52.876;18.778;2022-08-21T06:43:42;100366.66;;;23.65;95.83
52185;BME280;38160;52.876;18.778;2022-08-21T06:46:14;100366.41;;;23.67;95.64
52185;BME280;38160;52.876;18.778;2022-08-21T06:48:46;100367.53;;;23.71;95.89
52185;BME280;38160;52.876;18.778;2022-08-21T06:51:17;100362.28;;;23.67;95.49
52185;BME280;38160;52.876;18.778;2022-08-21T06:57:21;100365.98;;;24.00;95.45
52185;BME280;38160;52.876;18.778;2022-08-21T07:00:18;100373.03;;;24.18;94.98
52185;BME280;38160;52.876;18.778;2022-08-21T07:09:45;100360.92;;;24.48;94.70
52185;BME280;38160;52.876;18.778;2022-08-21T07:12:17;100360.52;;;24.72;94.58
52185;BME280;38160;52.876;18.778;2022-08-21T07:18:06;100365.05;;;24.83;93.61
52185;BME280;38160;52.876;18.778;2022-08-21T07:24:18;100361.86;;;25.09;93.11
52185;BME280;38160;52.876;18.778;2022-08-21T07:26:59;100370.31;;;25.35;93.59
52185;BME280;38160;52.876;18.778;2022-08-21T08:34:35;100355.02;;;27.16;85.40
52185;BME280;38160;52.876;18.778;2022-08-21T08:37:09;100362.77;;;27.16;84.22
52185;BME280;38160;52.876;18.778;2022-08-21T08:39:41;100365.25;;;27.21;84.14
52185;BME280;38160;52.876;18.778;2022-08-21T08:42:16;100365.26;;;27.26;84.21
52185;BME280;38160;52.876;18.778;2022-08-21T08:44:59;100360.80;;;27.32;83.18
52185;BME280;38160;52.876;18.778;2022-08-21T09:18:50;100365.74;;;28.01;78.60
52185;BME280;38160;52.876;18.778;2022-08-21T09:29:02;100372.73;;;27.93;77.15
52185;BME280;38160;52.876;18.778;2022-08-21T09:31:36;100373.88;;;27.87;76.33
52185;BME280;38160;52.876;18.778;2022-08-21T09:37:17;100369.48;;;27.75;75.47
52185;BME280;38160;52.876;18.778;2022-08-21T09:39:49;100367.83;;;27.72;76.13
52185;BME280;38160;52.876;18.778;2022-08-21T09:45:16;100367.20;;;27.88;75.43
52185;BME280;38160;52.876;18.778;2022-08-21T10:25:02;100355.86;;;27.87;69.89
52185;BME280;38160;52.876;18.778;2022-08-21T10:28:00;100357.77;;;27.91;72.21
52185;BME280;38160;52.876;18.778;2022-08-21T10:40:55;100355.00;;;28.63;70.33
52185;BME280;38160;52.876;18.778;2022-08-21T11:03:21;100361.60;;;28.69;68.36
52185;BME280;38160;52.876;18.778;2022-08-21T11:06:13;100367.41;;;28.73;68.52
52185;BME280;38160;52.876;18.778;2022-08-21T11:08:57;100364.98;;;28.66;68.36
52185;BME280;38160;52.876;18.778;2022-08-21T11:26:15;100359.94;;;28.34;68.13
52185;BME280;38160;52.876;18.778;2022-08-21T11:28:55;100357.67;;;28.02;68.27
52185;BME280;38160;52.876;18.778;2022-08-21T11:31:37;100368.85;;;27.84;68.51
52185;BME280;38160;52.876;18.778;2022-08-21T11:40:54;100360.88;;;26.99;69.21
52185;BME280;38160;52.876;18.778;2022-08-21T11:50:36;100361.73;;;26.84;70.46
52185;BME280;38160;52.876;18.778;2022-08-21T11:53:32;100358.67;;;26.99;70.52
52185;BME280;38160;52.876;18.778;2022-08-21T11:56:18;100359.75;;;27.00;70.88
52185;BME280;38160;52.876;18.778;2022-08-21T11:58:52;100361.40;;;27.14;70.66
52185;BME280;38160;52.876;18.778;2022-08-21T12:01:30;100356.96;;;27.23;70.68
52185;BME280;38160;52.876;18.778;2022-08-21T12:04:15;100346.98;;;27.27;70.83
52185;BME280;38160;52.876;18.778;2022-08-21T12:06:43;100348.87;;;27.34;71.08
52185;BME280;38160;52.876;18.778;2022-08-21T12:09:36;100344.98;;;27.35;70.88
52185;BME280;38160;52.876;18.778;2022-08-21T12:17:58;100343.52;;;27.56;71.20
52185;BME280;38160;52.876;18.778;2022-08-21T12:20:59;100344.62;;;27.55;71.25
52185;BME280;38160;52.876;18.778;2022-08-21T12:24:32;100342.69;;;27.53;71.17
52185;BME280;38160;52.876;18.778;2022-08-21T12:26:34;100343.27;;;27.50;71.32
52185;BME280;38160;52.876;18.778;2022-08-21T12:29:13;100341.84;;;27.55;71.41
52185;BME280;38160;52.876;18.778;2022-08-21T12:31:49;100343.23;;;27.60;70.98
52185;BME280;38160;52.876;18.778;2022-08-21T12:34:40;100346.77;;;27.68;71.55
52185;BME280;38160;52.876;18.778;2022-08-21T12:37:22;100346.76;;;27.73;71.49
52185;BME280;38160;52.876;18.778;2022-08-21T12:40:20;100349.00;;;27.69;71.41
52185;BME280;38160;52.876;18.778;2022-08-21T12:43:03;100347.89;;;27.67;71.29
52185;BME280;38160;52.876;18.778;2022-08-21T12:46:24;100342.05;;;27.71;71.36
52185;BME280;38160;52.876;18.778;2022-08-21T12:49:02;100359.55;;;27.62;71.29
52185;BME280;38160;52.876;18.778;2022-08-21T12:54:30;100354.94;;;27.47;71.27
52185;BME280;38160;52.876;18.778;2022-08-21T12:57:05;100350.45;;;27.56;71.06
52185;BME280;38160;52.876;18.778;2022-08-21T12:59:38;100357.58;;;27.70;71.30
52185;BME280;38160;52.876;18.778;2022-08-21T13:02:16;100353.91;;;27.79;70.78
52185;BME280;38160;52.876;18.778;2022-08-21T13:04:51;100356.08;;;27.95;70.93
52185;BME280;38160;52.876;18.778;2022-08-21T13:07:28;100354.30;;;28.10;69.86
52185;BME280;38160;52.876;18.778;2022-08-21T13:10:14;100354.80;;;28.19;70.15
52185;BME280;38160;52.876;18.778;2022-08-21T13:12:57;100360.23;;;28.35;70.58
52185;BME280;38160;52.876;18.778;2022-08-21T13:15:34;100358.73;;;28.45;70.24
52185;BME280;38160;52.876;18.778;2022-08-21T13:18:07;100364.27;;;28.13;69.59
52185;BME280;38160;52.876;18.778;2022-08-21T13:20:40;100361.64;;;27.93;70.15
52185;BME280;38160;52.876;18.778;2022-08-21T13:23:28;100359.15;;;27.91;69.87
52185;BME280;38160;52.876;18.778;2022-08-21T13:26:01;100363.29;;;27.94;69.80
52185;BME280;38160;52.876;18.778;2022-08-21T13:28:57;100362.17;;;27.97;69.85
52185;BME280;38160;52.876;18.778;2022-08-21T13:31:58;100370.47;;;28.00;69.67
52185;BME280;38160;52.876;18.778;2022-08-21T13:34:35;100380.77;;;27.92;69.33
52185;BME280;38160;52.876;18.778;2022-08-21T13:37:09;100376.89;;;27.90;69.13
52185;BME280;38160;52.876;18.778;2022-08-21T13:39:48;100377.19;;;27.81;69.19
52185;BME280;38160;52.876;18.778;2022-08-21T13:42:21;100379.73;;;27.72;69.33
52185;BME280;38160;52.876;18.778;2022-08-21T13:44:55;100380.01;;;27.71;69.13
52185;BME280;38160;52.876;18.778;2022-08-21T13:47:26;100385.69;;;27.40;69.14
52185;BME280;38160;52.876;18.778;2022-08-21T13:49:58;100380.49;;;27.26;69.08
52185;BME280;38160;52.876;18.778;2022-08-21T13:52:32;100389.93;;;27.12;69.25
52185;BME280;38160;52.876;18.778;2022-08-21T13:55:11;100390.52;;;26.99;69.35
52185;BME280;38160;52.876;18.778;2022-08-21T13:57:43;100386.36;;;26.99;69.63
52185;BME280;38160;52.876;18.778;2022-08-21T14:00:25;100391.61;;;26.98;69.41
52185;BME280;38160;52.876;18.778;2022-08-21T14:03:06;100389.98;;;26.84;69.47
52185;BME280;38160;52.876;18.778;2022-08-21T14:05:44;100389.16;;;26.60;69.79
52185;BME280;38160;52.876;18.778;2022-08-21T14:08:34;100391.34;;;26.45;69.96
52185;BME280;38160;52.876;18.778;2022-08-21T14:11:11;100384.14;;;26.31;70.34
52185;BME280;38160;52.876;18.778;2022-08-21T14:13:58;100393.55;;;26.18;70.57
52185;BME280;38160;52.876;18.778;2022-08-21T14:20:11;100392.06;;;25.87;70.90
52185;BME280;38160;52.876;18.778;2022-08-21T14:23:04;100400.31;;;25.69;71.01
52185;BME280;38160;52.876;18.778;2022-08-21T14:25:42;100399.95;;;25.55;71.18
52185;BME280;38160;52.876;18.778;2022-08-21T14:28:34;100405.39;;;25.32;71.26
52185;BME280;38160;52.876;18.778;2022-08-21T14:31:20;100406.66;;;25.17;71.41
52185;BME280;38160;52.876;18.778;2022-08-21T14:33:52;100413.45;;;24.99;71.68
52185;BME280;38160;52.876;18.778;2022-08-21T14:36:24;100413.87;;;24.85;71.81
52185;BME280;38160;52.876;18.778;2022-08-21T14:38:56;100398.29;;;24.64;72.54
52185;BME280;38160;52.876;18.778;2022-08-21T14:48:48;100422.98;;;24.48;73.07
52185;BME280;38160;52.876;18.778;2022-08-21T14:51:20;100415.64;;;24.35;73.92
52185;BME280;38160;52.876;18.778;2022-08-21T14:57:12;100420.98;;;24.17;74.40
52185;BME280;38160;52.876;18.778;2022-08-21T15:02:39;100417.03;;;24.07;74.70
52185;BME280;38160;52.876;18.778;2022-08-21T15:05:11;100416.41;;;24.00;75.25
52185;BME280;38160;52.876;18.778;2022-08-21T15:07:43;100414.20;;;24.00;75.37
52185;BME280;38160;52.876;18.778;2022-08-21T15:10:15;100420.55;;;24.00;75.71
52185;BME280;38160;52.876;18.778;2022-08-21T15:12:47;100419.62;;;23.92;75.76
52185;BME280;38160;52.876;18.778;2022-08-21T15:15:19;100420.65;;;23.86;76.02
52185;BME280;38160;52.876;18.778;2022-08-21T15:17:51;100420.57;;;23.78;76.75
52185;BME280;38160;52.876;18.778;2022-08-21T15:20:22;100414.67;;;23.72;76.28
52185;BME280;38160;52.876;18.778;2022-08-21T15:22:56;100412.97;;;23.68;76.41
52185;BME280;38160;52.876;18.778;2022-08-21T15:25:28;100416.83;;;23.67;78.86
52185;BME280;38160;52.876;18.778;2022-08-21T15:28:00;100420.02;;;23.59;77.93
52185;BME280;38160;52.876;18.778;2022-08-21T15:34:08;100417.13;;;23.49;77.17
52185;BME280;38160;52.876;18.778;2022-08-21T15:36:43;100420.63;;;23.42;77.72
52185;BME280;38160;52.876;18.778;2022-08-21T15:39:15;100424.33;;;23.31;77.84
52185;BME280;38160;52.876;18.778;2022-08-21T15:42:01;100427.48;;;23.20;77.48
52185;BME280;38160;52.876;18.778;2022-08-21T15:45:22;100432.34;;;23.13;77.69
52185;BME280;38160;52.876;18.778;2022-08-21T15:48:17;100428.39;;;23.06;77.83
52185;BME280;38160;52.876;18.778;2022-08-21T15:54:02;100439.95;;;22.74;78.23
52185;BME280;38160;52.876;18.778;2022-08-21T16:02:38;100448.06;;;22.50;79.85
52185;BME280;38160;52.876;18.778;2022-08-21T16:05:43;100451.13;;;22.36;79.57
52185;BME280;38160;52.876;18.778;2022-08-21T16:08:20;100458.94;;;22.28;79.79
52185;BME280;38160;52.876;18.778;2022-08-21T16:10:52;100456.55;;;22.19;80.29
52185;BME280;38160;52.876;18.778;2022-08-21T16:13:29;100470.79;;;22.16;79.70
52185;BME280;38160;52.876;18.778;2022-08-21T16:16:04;100489.03;;;22.08;80.50
52185;BME280;38160;52.876;18.778;2022-08-21T16:18:36;100487.48;;;21.98;80.94
52185;BME280;38160;52.876;18.778;2022-08-21T16:21:11;100495.59;;;21.93;80.44
52185;BME280;38160;52.876;18.778;2022-08-21T16:23:55;100494.95;;;21.88;80.70
52185;BME280;38160;52.876;18.778;2022-08-21T16:29:54;100476.31;;;21.64;80.51
52185;BME280;38160;52.876;18.778;2022-08-21T16:32:34;100523.10;;;21.69;80.79
52185;BME280;38160;52.876;18.778;2022-08-21T16:35:14;100514.00;;;21.54;81.22
52185;BME280;38160;52.876;18.778;2022-08-21T16:37:48;100514.00;;;21.54;81.22
52185;BME280;38160;52.876;18.778;2022-08-21T16:40:21;100510.14;;;21.41;81.42
52185;BME280;38160;52.876;18.778;2022-08-21T16:42:53;100501.08;;;21.31;81.81
52185;BME280;38160;52.876;18.778;2022-08-21T16:45:26;100500.00;;;21.20;82.20
52185;BME280;38160;52.876;18.778;2022-08-21T16:47:58;100492.27;;;21.06;82.39
52185;BME280;38160;52.876;18.778;2022-08-21T16:50:31;100499.47;;;21.09;82.61
52185;BME280;38160;52.876;18.778;2022-08-21T16:53:03;100499.47;;;21.09;82.61
52185;BME280;38160;52.876;18.778;2022-08-21T16:55:37;100506.32;;;20.97;82.79
52185;BME280;38160;52.876;18.778;2022-08-21T16:58:17;100513.18;;;20.97;82.75
52185;BME280;38160;52.876;18.778;2022-08-21T17:00:52;100511.20;;;20.95;83.60
52185;BME280;38160;52.876;18.778;2022-08-21T17:03:42;100515.11;;;20.88;83.26
52185;BME280;38160;52.876;18.778;2022-08-21T17:06:30;100521.84;;;20.83;83.26
52185;BME280;38160;52.876;18.778;2022-08-21T17:09:28;100521.19;;;20.78;83.69
52185;BME280;38160;52.876;18.778;2022-08-21T17:25:29;100533.06;;;20.60;84.70
52185;BME280;38160;52.876;18.778;2022-08-21T17:28:02;100543.70;;;20.59;84.52
52185;BME280;38160;52.876;18.778;2022-08-21T17:34:17;100546.00;;;20.44;85.23
52185;BME280;38160;52.876;18.778;2022-08-21T17:36:51;100542.91;;;20.40;85.42
52185;BME280;38160;52.876;18.778;2022-08-21T17:39:27;100540.52;;;20.44;85.81
52185;BME280;38160;52.876;18.778;2022-08-21T17:42:10;100538.19;;;20.38;85.24
52185;BME280;38160;52.876;18.778;2022-08-21T17:44:41;100543.67;;;20.38;85.25
52185;BME280;38160;52.876;18.778;2022-08-21T17:47:14;100545.73;;;20.33;85.68
52185;BME280;38160;52.876;18.778;2022-08-21T17:49:46;100541.78;;;20.29;85.61
52185;BME280;38160;52.876;18.778;2022-08-21T17:52:18;100547.41;;;20.25;86.08
52185;BME280;38160;52.876;18.778;2022-08-21T17:54:49;100543.68;;;20.19;85.66
52185;BME280;38160;52.876;18.778;2022-08-21T17:57:22;100539.72;;;20.15;85.86
52185;BME280;38160;52.876;18.778;2022-08-21T17:59:56;100551.91;;;20.10;86.94
52185;BME280;38160;52.876;18.778;2022-08-21T18:02:41;100551.91;;;20.10;86.99
52185;BME280;38160;52.876;18.778;2022-08-21T18:05:13;100520.05;;;19.88;86.68
52185;BME280;38160;52.876;18.778;2022-08-21T18:07:45;100555.80;;;20.12;87.14
52185;BME280;38160;52.876;18.778;2022-08-21T18:36:07;100563.25;;;19.86;87.97
52185;BME280;38160;52.876;18.778;2022-08-21T18:38:39;100560.52;;;19.86;87.61
52185;BME280;38160;52.876;18.778;2022-08-21T18:41:10;100562.28;;;19.81;88.01
52185;BME280;38160;52.876;18.778;2022-08-21T18:43:42;100561.41;;;19.71;88.07
52185;BME280;38160;52.876;18.778;2022-08-21T18:46:14;100556.38;;;19.68;88.09
52185;BME280;38160;52.876;18.778;2022-08-21T18:48:46;100566.39;;;19.65;89.07
52185;BME280;38160;52.876;18.778;2022-08-21T18:51:21;100564.12;;;19.62;88.19
52185;BME280;38160;52.876;18.778;2022-08-21T18:53:53;100567.22;;;19.56;88.54
52185;BME280;38160;52.876;18.778;2022-08-21T18:56:27;100569.05;;;19.53;88.90
52185;BME280;38160;52.876;18.778;2022-08-21T18:58:59;100579.16;;;19.52;88.73
52185;BME280;38160;52.876;18.778;2022-08-21T19:01:31;100578.63;;;19.53;89.00
52185;BME280;38160;52.876;18.778;2022-08-21T19:04:04;100584.92;;;19.53;89.79
52185;BME280;38160;52.876;18.778;2022-08-21T19:06:37;100589.50;;;19.50;89.26
52185;BME280;38160;52.876;18.778;2022-08-21T19:09:09;100585.53;;;19.46;89.17
52185;BME280;38160;52.876;18.778;2022-08-21T19:11:42;100580.59;;;19.46;89.04
52185;BME280;38160;52.876;18.778;2022-08-21T19:14:26;100580.75;;;19.51;89.08
52185;BME280;38160;52.876;18.778;2022-08-21T19:17:29;100584.45;;;19.47;88.91
52185;BME280;38160;52.876;18.778;2022-08-21T19:23:43;100579.64;;;19.33;89.50
52185;BME280;38160;52.876;18.778;2022-08-21T19:26:26;100581.59;;;19.26;91.09
52185;BME280;38160;52.876;18.778;2022-08-21T19:28:54;100579.30;;;19.23;90.03
52185;BME280;38160;52.876;18.778;2022-08-21T19:31:32;100584.69;;;19.21;90.73
52185;BME280;38160;52.876;18.778;2022-08-21T19:34:20;100580.83;;;19.19;89.84
52185;BME280;38160;52.876;18.778;2022-08-21T19:36:54;100592.73;;;19.15;90.28
52185;BME280;38160;52.876;18.778;2022-08-21T19:42:31;100585.41;;;19.09;90.56
52185;BME280;38160;52.876;18.778;2022-08-21T19:45:05;100583.26;;;19.02;90.86
52185;BME280;38160;52.876;18.778;2022-08-21T19:47:46;100586.25;;;18.94;91.55
52185;BME280;38160;52.876;18.778;2022-08-21T19:50:21;100588.61;;;18.90;91.34
52185;BME280;38160;52.876;18.778;2022-08-21T19:52:53;100586.22;;;18.85;91.98
52185;BME280;38160;52.876;18.778;2022-08-21T19:55:24;100589.40;;;18.82;92.33
52185;BME280;38160;52.876;18.778;2022-08-21T19:57:56;100600.22;;;18.79;91.98
52185;BME280;38160;52.876;18.778;2022-08-21T20:00:31;100591.28;;;18.74;92.27
52185;BME280;38160;52.876;18.778;2022-08-21T20:03:02;100593.27;;;18.76;92.45
52185;BME280;38160;52.876;18.778;2022-08-21T20:05:42;100596.36;;;18.78;92.06
52185;BME280;38160;52.876;18.778;2022-08-21T20:08:36;100603.37;;;18.76;93.18
52185;BME280;38160;52.876;18.778;2022-08-21T20:11:09;100598.98;;;18.68;93.46
52185;BME280;38160;52.876;18.778;2022-08-21T20:13:42;100597.16;;;18.62;92.96
52185;BME280;38160;52.876;18.778;2022-08-21T20:16:14;100598.44;;;18.60;93.20
52185;BME280;38160;52.876;18.778;2022-08-21T20:18:47;100595.91;;;18.58;92.93
52185;BME280;38160;52.876;18.778;2022-08-21T20:21:19;100593.17;;;18.58;92.30
52185;BME280;38160;52.876;18.778;2022-08-21T20:23:50;100592.88;;;18.50;93.21
52185;BME280;38160;52.876;18.778;2022-08-21T20:26:22;100594.49;;;18.49;92.73
52185;BME280;38160;52.876;18.778;2022-08-21T20:28:54;100606.04;;;18.51;93.27
52185;BME280;38160;52.876;18.778;2022-08-21T20:31:26;100591.97;;;18.47;92.96
52185;BME280;38160;52.876;18.778;2022-08-21T20:33:58;100598.09;;;18.43;93.79
52185;BME280;38160;52.876;18.778;2022-08-21T20:36:30;100592.41;;;18.38;93.63
52185;BME280;38160;52.876;18.778;2022-08-21T20:39:03;100590.66;;;18.34;93.57
52185;BME280;38160;52.876;18.778;2022-08-21T20:41:34;100592.56;;;18.33;93.94
52185;BME280;38160;52.876;18.778;2022-08-21T20:44:30;100589.41;;;18.30;93.78
52185;BME280;38160;52.876;18.778;2022-08-21T21:18:45;100565.84;;;18.13;94.51
52185;BME280;38160;52.876;18.778;2022-08-21T21:22:19;100593.95;;;18.27;95.12
52185;BME280;38160;52.876;18.778;2022-08-21T21:25:23;100594.58;;;18.22;95.35
52185;BME280;38160;52.876;18.778;2022-08-21T21:28:10;100594.28;;;18.21;95.40
52185;BME280;38160;52.876;18.778;2022-08-21T21:30:55;100589.11;;;18.22;95.00
52185;BME280;38160;52.876;18.778;2022-08-21T21:33:27;100583.45;;;18.24;95.13
52185;BME280;38160;52.876;18.778;2022-08-21T21:42:40;100594.72;;;18.18;95.16
52185;BME280;38160;52.876;18.778;2022-08-21T21:45:26;100587.27;;;18.16;96.00
52185;BME280;38160;52.876;18.778;2022-08-21T22:00:27;100578.17;;;18.00;95.26
52185;BME280;38160;52.876;18.778;2022-08-21T22:03:21;100587.93;;;17.98;95.59
52185;BME280;38160;52.876;18.778;2022-08-21T22:06:15;100589.94;;;17.93;95.08
52185;BME280;38160;52.876;18.778;2022-08-21T22:14:58;100592.92;;;17.85;94.84
52185;BME280;38160;52.876;18.778;2022-08-21T22:17:45;100591.64;;;17.81;95.35
52185;BME280;38160;52.876;18.778;2022-08-21T22:36:45;100610.33;;;17.71;94.43
52185;BME280;38160;52.876;18.778;2022-08-21T22:42:44;100613.25;;;17.76;94.10
52185;BME280;38160;52.876;18.778;2022-08-21T22:48:32;100584.74;;;17.45;94.32
52185;BME280;38160;52.876;18.778;2022-08-21T22:51:11;100616.95;;;17.72;94.77
52185;BME280;38160;52.876;18.778;2022-08-21T22:53:50;100618.95;;;17.74;94.68
52185;BME280;38160;52.876;18.778;2022-08-21T22:56:28;100619.36;;;17.65;94.67
52185;BME280;38160;52.876;18.778;2022-08-21T22:59:26;100609.08;;;17.60;95.08
52185;BME280;38160;52.876;18.778;2022-08-21T23:02:21;100603.11;;;17.47;95.04
52185;BME280;38160;52.876;18.778;2022-08-21T23:05:03;100599.98;;;17.37;95.40
52185;BME280;38160;52.876;18.778;2022-08-21T23:07:42;100596.29;;;17.34;95.56
52185;BME280;38160;52.876;18.778;2022-08-21T23:10:38;100592.83;;;17.29;95.57
52185;BME280;38160;52.876;18.778;2022-08-21T23:13:14;100603.44;;;17.35;95.70
52185;BME280;38160;52.876;18.778;2022-08-21T23:15:58;100604.08;;;17.30;96.30
52185;BME280;38160;52.876;18.778;2022-08-21T23:18:53;100605.53;;;17.33;95.71
